Time;durP1;ratioP1;P1;durP2;ratioP2;P2;SDS_P1;SDS_P2;PMS_P1;PMS_P2;Temp;Humidity;BMP_temperature;BMP_pressure;BME280_temperature;BME280_humidity;BME280_pressure;Samples;Min_cycle;Max_cycle;Signal;HPM_P1;HPM_P2
2021/11/15 00:01:30;;;;;;;11.27;9.05;;;7.90;99.90;;;;;;5013478;28;20282;-61
2021/11/15 00:03:59;;;;;;;10.82;9.55;;;7.90;99.90;;;;;;5013503;28;20198;-61
2021/11/15 00:06:27;;;;;;;12.60;11.27;;;7.90;99.90;;;;;;4998782;28;20233;-60
2021/11/15 00:08:55;;;;;;;11.10;9.60;;;7.90;99.90;;;;;;4993835;28;20226;-61
2021/11/15 00:11:26;;;;;;;10.40;9.40;;;7.90;99.90;;;;;;5016139;28;20643;-61
2021/11/15 00:13:54;;;;;;;12.30;9.43;;;8.00;99.90;;;;;;4993354;28;20433;-60
2021/11/15 00:16:22;;;;;;;12.90;9.90;;;8.00;99.90;;;;;;4993056;28;20226;-60
2021/11/15 00:18:51;;;;;;;10.68;9.38;;;8.00;99.90;;;;;;4993698;28;20209;-61
2021/11/15 00:21:19;;;;;;;11.73;10.23;;;8.00;99.90;;;;;;5010664;28;20230;-61
2021/11/15 00:23:47;;;;;;;13.30;9.98;;;8.10;99.90;;;;;;5013026;28;20502;-62
2021/11/15 00:26:15;;;;;;;11.65;9.63;;;8.00;99.90;;;;;;5008861;28;20243;-60
2021/11/15 00:28:45;;;;;;;9.57;8.67;;;8.00;99.90;;;;;;4992219;28;20196;-62
2021/11/15 00:31:13;;;;;;;13.30;10.18;;;8.00;99.90;;;;;;4993165;28;20476;-62
2021/11/15 00:33:41;;;;;;;10.57;9.47;;;8.00;99.90;;;;;;4993476;28;20190;-61
2021/11/15 00:36:09;;;;;;;13.93;9.97;;;8.10;99.90;;;;;;4992630;28;20834;-60
2021/11/15 00:38:37;;;;;;;11.60;9.40;;;8.10;99.90;;;;;;4993291;28;20432;-61
2021/11/15 00:41:06;;;;;;;12.57;9.80;;;8.20;99.90;;;;;;4992689;28;20839;-61
2021/11/15 00:43:34;;;;;;;10.33;9.23;;;8.20;99.90;;;;;;4993305;28;20460;-60
2021/11/15 00:46:04;;;;;;;12.00;10.23;;;8.20;99.90;;;;;;4992542;28;20470;-61
2021/11/15 00:48:32;;;;;;;10.93;9.60;;;8.20;99.90;;;;;;4993241;28;20896;-61
2021/11/15 00:51:00;;;;;;;10.57;8.50;;;8.20;99.90;;;;;;4992697;28;20524;-62
2021/11/15 00:53:29;;;;;;;9.13;7.70;;;8.20;99.90;;;;;;4992981;28;20428;-61
2021/11/15 00:55:57;;;;;;;11.17;9.63;;;8.20;99.90;;;;;;4992097;28;20828;-60
2021/11/15 00:58:25;;;;;;;12.73;9.50;;;8.30;99.90;;;;;;4993117;28;20433;-61
2021/11/15 01:00:53;;;;;;;9.53;8.30;;;8.20;99.90;;;;;;4992474;28;20470;-62
2021/11/15 01:03:25;;;;;;;11.07;9.97;;;8.20;99.90;;;;;;4991818;28;20529;-62
2021/11/15 01:05:54;;;;;;;11.43;10.20;;;8.10;99.90;;;;;;4991194;28;20488;-61
2021/11/15 01:08:23;;;;;;;12.57;9.13;;;8.10;99.90;;;;;;4993044;28;20773;-61
2021/11/15 01:10:52;;;;;;;12.15;10.60;;;8.00;99.90;;;;;;4991898;28;20991;-61
2021/11/15 01:13:21;;;;;;;12.30;9.50;;;8.00;99.90;;;;;;5012305;28;20202;-62
2021/11/15 01:15:49;;;;;;;13.10;10.33;;;8.00;99.90;;;;;;5011612;28;20876;-61
2021/11/15 01:18:17;;;;;;;11.70;10.50;;;8.00;99.90;;;;;;5011013;28;20427;-61
2021/11/15 01:20:47;;;;;;;11.17;9.73;;;8.00;99.90;;;;;;5010473;28;20457;-61
2021/11/15 01:23:15;;;;;;;12.87;9.57;;;8.10;99.90;;;;;;4992765;28;20897;-63
2021/11/15 01:25:43;;;;;;;12.57;10.70;;;8.10;99.90;;;;;;4991140;28;21014;-60
2021/11/15 01:28:12;;;;;;;11.90;9.80;;;8.10;99.90;;;;;;4992610;28;20452;-60
2021/11/15 01:30:41;;;;;;;15.87;11.50;;;8.10;99.90;;;;;;4991890;28;20825;-62
2021/11/15 01:33:10;;;;;;;13.20;11.70;;;8.10;99.90;;;;;;4992843;28;20462;-62
2021/11/15 01:35:38;;;;;;;12.50;11.20;;;8.10;99.90;;;;;;4991478;28;20470;-61
2021/11/15 01:38:08;;;;;;;13.03;11.70;;;8.10;99.90;;;;;;4992433;28;20426;-60
2021/11/15 01:40:36;;;;;;;14.00;11.93;;;8.10;99.90;;;;;;4991854;28;20963;-62
2021/11/15 01:43:05;;;;;;;17.10;11.97;;;8.10;99.90;;;;;;4992433;28;20445;-61
2021/11/15 01:45:35;;;;;;;14.43;11.27;;;8.10;99.90;;;;;;4991587;28;20480;-60
2021/11/15 01:48:06;;;;;;;13.50;11.90;;;8.10;99.90;;;;;;4992495;28;20436;-61
2021/11/15 01:50:37;;;;;;;12.83;11.17;;;8.10;99.90;;;;;;4991777;28;20843;-61
2021/11/15 01:53:08;;;;;;;13.20;11.23;;;8.10;99.90;;;;;;4992296;28;20437;-62
2021/11/15 01:55:38;;;;;;;13.83;10.90;;;8.10;99.90;;;;;;4991749;28;20506;-61
2021/11/15 01:58:09;;;;;;;15.80;11.90;;;8.20;99.90;;;;;;4991955;28;20480;-60
2021/11/15 02:00:41;;;;;;;14.03;10.53;;;8.20;99.90;;;;;;4990434;28;20466;-62
2021/11/15 02:03:10;;;;;;;15.20;11.80;;;8.20;99.90;;;;;;4992174;28;20999;-62
2021/11/15 02:05:39;;;;;;;12.00;10.33;;;8.20;99.90;;;;;;5005927;28;20655;-61
2021/11/15 02:08:08;;;;;;;14.30;12.60;;;8.20;99.90;;;;;;4992350;28;20441;-60
2021/11/15 02:10:38;;;;;;;13.60;11.27;;;8.20;99.90;;;;;;4991828;28;20477;-62
2021/11/15 02:13:07;;;;;;;14.57;12.57;;;8.20;99.90;;;;;;4992510;28;20452;-61
2021/11/15 02:15:36;;;;;;;12.67;11.30;;;8.20;99.90;;;;;;4991089;28;20473;-60
2021/11/15 02:18:05;;;;;;;17.13;13.43;;;8.20;99.90;;;;;;4992119;28;20968;-60
2021/11/15 02:20:46;;;;;;;13.13;11.43;;;8.20;99.90;;;;;;5003497;28;20463;-62
2021/11/15 02:23:14;;;;;;;16.77;12.83;;;8.20;99.90;;;;;;4992090;28;20886;-62
2021/11/15 02:25:42;;;;;;;13.67;12.27;;;8.10;99.90;;;;;;4991209;28;20875;-60
2021/11/15 02:28:11;;;;;;;17.93;13.83;;;8.10;99.90;;;;;;5007250;28;20514;-61
2021/11/15 02:30:39;;;;;;;15.30;12.40;;;8.00;99.90;;;;;;4991346;28;20531;-63
2021/11/15 02:33:09;;;;;;;15.93;12.70;;;8.00;99.90;;;;;;4990778;28;20948;-61
2021/11/15 02:35:39;;;;;;;14.93;12.30;;;8.00;99.90;;;;;;4990964;28;20552;-60
2021/11/15 02:38:09;;;;;;;15.50;12.80;;;8.00;99.90;;;;;;4995111;28;20442;-60
2021/11/15 02:40:37;;;;;;;15.93;12.90;;;7.90;99.90;;;;;;4994997;28;20461;-63
2021/11/15 02:43:05;;;;;;;16.15;13.10;;;7.80;99.90;;;;;;4995954;28;20981;-62
2021/11/15 02:45:34;;;;;;;18.67;12.20;;;7.80;99.90;;;;;;4994594;28;20226;-60
2021/11/15 02:48:02;;;;;;;16.08;12.77;;;7.80;99.90;;;;;;4995393;28;20212;-61
2021/11/15 02:50:32;;;;;;;17.63;13.30;;;7.80;99.90;;;;;;4994860;28;20220;-62
2021/11/15 02:53:03;;;;;;;18.00;13.40;;;7.80;99.90;;;;;;4993901;28;20674;-63
2021/11/15 02:55:34;;;;;;;17.15;13.02;;;7.80;99.90;;;;;;4994559;28;20263;-61
2021/11/15 02:58:04;;;;;;;17.98;13.30;;;7.90;99.90;;;;;;4995431;28;20212;-60
2021/11/15 03:00:37;;;;;;;20.67;14.25;;;7.80;99.90;;;;;;4993177;28;20230;-61
2021/11/15 03:03:07;;;;;;;16.38;12.38;;;7.80;99.90;;;;;;4995237;28;20661;-62
2021/11/15 03:05:37;;;;;;;14.40;12.18;;;7.80;99.90;;;;;;4994289;28;20269;-61
2021/11/15 03:08:07;;;;;;;16.23;12.57;;;7.80;99.90;;;;;;4995173;28;20199;-61
2021/11/15 03:10:39;;;;;;;15.23;12.70;;;7.90;99.90;;;;;;4994457;28;20764;-61
2021/11/15 03:13:09;;;;;;;16.20;11.75;;;7.90;99.90;;;;;;4994497;28;20206;-62
2021/11/15 03:15:40;;;;;;;14.48;12.05;;;7.90;99.90;;;;;;4994050;28;20261;-61
2021/11/15 03:18:11;;;;;;;20.10;13.80;;;8.00;99.90;;;;;;4994832;28;20183;-61
2021/11/15 03:20:41;;;;;;;13.53;11.90;;;7.90;99.90;;;;;;5002346;28;20222;-61
2021/11/15 03:23:11;;;;;;;17.05;12.48;;;8.00;99.90;;;;;;4994852;28;20471;-62
2021/11/15 03:25:41;;;;;;;16.60;12.45;;;7.90;99.90;;;;;;4993991;28;20738;-60
2021/11/15 03:28:10;;;;;;;13.82;11.52;;;7.90;99.90;;;;;;4994872;28;20202;-61
2021/11/15 03:30:39;;;;;;;15.82;12.38;;;7.90;99.90;;;;;;4994021;28;20218;-62
2021/11/15 03:33:08;;;;;;;13.37;11.97;;;8.00;99.90;;;;;;4994607;28;20569;-61
2021/11/15 03:35:37;;;;;;;15.00;12.90;;;8.10;99.90;;;;;;4993676;28;20477;-62
2021/11/15 03:38:06;;;;;;;15.13;12.33;;;8.10;99.90;;;;;;4994416;28;20791;-61
2021/11/15 03:40:34;;;;;;;15.43;12.37;;;8.10;99.90;;;;;;4994164;28;20466;-61
2021/11/15 03:43:05;;;;;;;15.13;11.70;;;8.10;99.90;;;;;;4994628;28;20793;-61
2021/11/15 03:45:35;;;;;;;15.70;11.73;;;8.10;99.90;;;;;;4993677;28;20485;-61
2021/11/15 03:48:04;;;;;;;17.00;12.57;;;8.00;99.90;;;;;;4994018;28;20433;-60
2021/11/15 03:50:32;;;;;;;16.93;12.90;;;8.00;99.90;;;;;;4993438;28;20520;-62
2021/11/15 03:53:02;;;;;;;19.30;12.77;;;8.00;99.90;;;;;;4994368;28;20925;-62
2021/11/15 03:55:31;;;;;;;18.07;12.77;;;8.00;99.90;;;;;;4999287;28;20461;-62
2021/11/15 03:57:59;;;;;;;14.67;12.00;;;8.00;99.90;;;;;;4998795;28;20552;-61
2021/11/15 04:00:31;;;;;;;20.03;13.60;;;7.90;99.90;;;;;;4993595;28;20472;-61
2021/11/15 04:03:04;;;;;;;15.43;12.43;;;7.90;99.90;;;;;;5015340;28;20523;-62
2021/11/15 04:05:36;;;;;;;15.23;12.20;;;7.90;99.90;;;;;;5011225;28;20484;-62
2021/11/15 04:08:06;;;;;;;17.47;13.40;;;7.90;99.90;;;;;;5013628;28;20246;-61
2021/11/15 04:10:37;;;;;;;18.75;13.48;;;7.90;99.90;;;;;;5013040;28;20472;-62
2021/11/15 04:13:08;;;;;;;16.50;13.45;;;7.80;99.90;;;;;;4995053;28;20224;-61
2021/11/15 04:15:39;;;;;;;17.05;12.45;;;7.80;99.90;;;;;;4992931;28;20839;-62
2021/11/15 04:18:09;;;;;;;17.17;12.45;;;7.80;99.90;;;;;;4994039;28;20189;-60
2021/11/15 04:20:39;;;;;;;20.50;13.32;;;7.80;99.90;;;;;;5002206;28;20221;-61
2021/11/15 04:23:07;;;;;;;15.45;11.30;;;7.80;99.90;;;;;;4993750;28;20658;-62
2021/11/15 04:25:35;;;;;;;19.50;12.95;;;7.70;99.90;;;;;;4992741;28;20226;-63
2021/11/15 04:28:04;;;;;;;15.90;11.80;;;7.70;99.90;;;;;;4993282;28;20915;-60
2021/11/15 04:30:32;;;;;;;25.20;14.00;;;7.70;99.90;;;;;;4993060;28;20226;-62
2021/11/15 04:33:04;;;;;;;14.13;11.85;;;7.70;99.90;;;;;;4993438;28;20215;-62
2021/11/15 04:35:32;;;;;;;21.70;13.63;;;7.70;99.90;;;;;;4992788;28;20650;-62
2021/11/15 04:38:02;;;;;;;18.65;12.30;;;7.70;99.90;;;;;;4993313;28;20191;-60
2021/11/15 04:40:31;;;;;;;21.63;13.13;;;7.80;99.90;;;;;;4991380;28;20220;-61
2021/11/15 04:43:00;;;;;;;17.65;12.02;;;7.70;99.90;;;;;;4993357;28;20203;-62
2021/11/15 04:45:28;;;;;;;16.10;12.73;;;7.70;99.90;;;;;;4992477;28;20311;-62
2021/11/15 04:47:56;;;;;;;20.45;13.13;;;7.70;99.90;;;;;;4993280;28;20570;-61
2021/11/15 04:50:26;;;;;;;16.48;12.35;;;7.60;99.90;;;;;;4992519;28;20693;-61
2021/11/15 04:52:54;;;;;;;16.75;12.68;;;7.60;99.90;;;;;;4991668;28;20586;-62
2021/11/15 04:55:24;;;;;;;24.42;12.95;;;7.70;99.90;;;;;;4992275;28;20228;-61
2021/11/15 04:57:54;;;;;;;13.23;11.68;;;7.70;99.90;;;;;;4993301;28;20619;-60
2021/11/15 05:00:24;;;;;;;15.65;11.85;;;7.70;99.90;;;;;;4991868;28;20717;-61
2021/11/15 05:02:53;;;;;;;15.20;10.43;;;7.70;99.90;;;;;;4992843;28;20218;-61
2021/11/15 05:05:22;;;;;;;13.55;11.38;;;7.80;99.90;;;;;;4990775;28;20216;-62
2021/11/15 05:07:54;;;;;;;13.15;10.77;;;7.70;99.90;;;;;;4992701;28;20682;-60
2021/11/15 05:10:24;;;;;;;14.23;11.32;;;7.80;99.90;;;;;;4992619;28;20590;-60
2021/11/15 05:12:53;;;;;;;14.32;12.18;;;7.80;99.90;;;;;;4992892;28;20214;-61
2021/11/15 05:15:21;;;;;;;15.35;10.93;;;7.80;99.90;;;;;;4992169;28;20218;-61
2021/11/15 05:17:51;;;;;;;14.65;11.98;;;7.80;99.90;;;;;;4992505;28;20191;-61
2021/11/15 05:20:21;;;;;;;15.63;11.30;;;7.80;99.90;;;;;;5000528;28;20258;-61
2021/11/15 05:22:50;;;;;;;19.45;11.82;;;7.70;99.90;;;;;;4992769;28;20673;-63
2021/11/15 05:25:19;;;;;;;14.45;12.30;;;7.70;99.90;;;;;;4992026;28;20341;-63
2021/11/15 05:27:48;;;;;;;15.80;11.70;;;7.70;99.90;;;;;;4992992;28;20196;-61
2021/11/15 05:30:18;;;;;;;15.35;11.45;;;7.70;99.90;;;;;;4992207;28;20235;-61
2021/11/15 05:32:48;;;;;;;15.88;11.68;;;7.60;99.90;;;;;;4992415;28;20707;-61
2021/11/15 05:35:16;;;;;;;13.93;10.65;;;7.60;99.90;;;;;;4991732;28;20605;-61
2021/11/15 05:37:45;;;;;;;15.48;11.25;;;7.60;99.90;;;;;;4992703;28;20202;-61
2021/11/15 05:40:15;;;;;;;17.42;11.57;;;7.70;99.90;;;;;;4992163;28;20620;-60
2021/11/15 05:42:48;;;;;;;15.63;11.63;;;7.70;99.90;;;;;;4992501;28;20185;-62
2021/11/15 05:45:17;;;;;;;17.85;11.45;;;7.70;99.90;;;;;;4991756;28;20315;-61
2021/11/15 05:47:45;;;;;;;16.25;11.43;;;7.70;99.90;;;;;;4992659;28;20242;-61
2021/11/15 05:50:15;;;;;;;16.65;12.02;;;7.70;99.90;;;;;;4991775;28;20706;-61
2021/11/15 05:52:44;;;;;;;16.35;12.30;;;7.70;99.90;;;;;;4992467;28;20202;-62
2021/11/15 05:55:13;;;;;;;12.05;9.95;;;7.70;99.90;;;;;;4991485;28;20237;-62
2021/11/15 05:57:43;;;;;;;13.60;10.70;;;7.70;99.90;;;;;;5009586;28;20681;-61
2021/11/15 06:00:15;;;;;;;15.43;11.43;;;7.70;99.90;;;;;;5010440;28;20453;-61
2021/11/15 06:02:43;;;;;;;14.50;10.10;;;7.80;99.90;;;;;;5012193;28;20244;-62
2021/11/15 06:05:12;;;;;;;13.43;10.40;;;7.80;99.90;;;;;;5007034;28;20301;-61
2021/11/15 06:07:41;;;;;;;11.20;9.33;;;7.80;99.90;;;;;;4992160;28;20434;-61
2021/11/15 06:10:11;;;;;;;15.10;9.77;;;7.90;99.90;;;;;;4991517;28;20474;-61
2021/11/15 06:12:39;;;;;;;12.98;9.43;;;7.90;99.90;;;;;;5004164;28;20859;-62
2021/11/15 06:15:12;;;;;;;14.60;10.47;;;7.90;99.90;;;;;;4995487;28;20320;-62
2021/11/15 06:17:42;;;;;;;13.10;9.97;;;7.90;99.90;;;;;;4996115;28;20894;-61
2021/11/15 06:20:13;;;;;;;12.17;9.70;;;8.00;99.90;;;;;;5005216;28;20487;-61
2021/11/15 06:22:41;;;;;;;14.17;10.17;;;8.00;99.90;;;;;;4999424;28;20474;-62
2021/11/15 06:25:11;;;;;;;13.47;9.43;;;7.90;99.90;;;;;;4995123;28;20465;-62
2021/11/15 06:27:40;;;;;;;10.87;9.13;;;8.00;99.90;;;;;;4995984;28;20946;-60
2021/11/15 06:30:11;;;;;;;15.13;10.33;;;8.00;99.90;;;;;;4995415;28;20513;-60
2021/11/15 06:32:40;;;;;;;11.67;10.43;;;8.00;99.90;;;;;;4995930;28;20465;-63
2021/11/15 06:35:09;;;;;;;13.33;10.43;;;7.90;99.90;;;;;;4994770;28;20900;-62
2021/11/15 06:37:37;;;;;;;14.07;11.33;;;7.90;99.90;;;;;;4995727;28;20441;-61
2021/11/15 06:40:08;;;;;;;13.30;9.90;;;8.00;99.90;;;;;;4995222;28;20469;-61
2021/11/15 06:42:36;;;;;;;14.00;10.30;;;7.90;99.90;;;;;;4995718;28;20445;-62
2021/11/15 06:45:05;;;;;;;16.53;10.57;;;7.90;99.90;;;;;;4994731;28;20480;-62
2021/11/15 06:47:36;;;;;;;13.20;10.17;;;7.90;99.90;;;;;;4995317;28;20418;-61
2021/11/15 06:50:06;;;;;;;16.57;11.70;;;7.90;99.90;;;;;;4994814;28;20469;-61
2021/11/15 06:52:34;;;;;;;14.80;10.83;;;7.90;99.90;;;;;;4995370;28;20502;-61
2021/11/15 06:55:05;;;;;;;16.37;11.40;;;7.90;99.90;;;;;;4995036;28;20454;-62
2021/11/15 06:57:33;;;;;;;16.40;12.13;;;7.90;99.90;;;;;;4995505;28;20453;-61
2021/11/15 07:00:02;;;;;;;16.30;11.30;;;7.70;99.90;;;;;;4994588;28;20469;-60
2021/11/15 07:02:30;;;;;;;14.67;11.13;;;7.80;99.90;;;;;;4995326;28;20436;-61
2021/11/15 07:04:59;;;;;;;15.98;11.10;;;7.80;99.90;;;;;;4994688;28;20567;-61
2021/11/15 07:07:28;;;;;;;16.27;11.20;;;7.80;99.90;;;;;;5010148;28;20696;-60
2021/11/15 07:09:56;;;;;;;15.30;10.90;;;7.70;99.90;;;;;;5012189;28;20503;-60
2021/11/15 07:12:24;;;;;;;14.50;11.20;;;7.80;99.90;;;;;;5001840;28;20445;-62
2021/11/15 07:14:52;;;;;;;17.60;13.03;;;7.80;99.90;;;;;;4994589;28;20530;-61
2021/11/15 07:17:20;;;;;;;15.07;10.77;;;7.80;99.90;;;;;;4995067;28;20500;-60
2021/11/15 07:19:48;;;;;;;16.58;12.15;;;7.80;99.90;;;;;;5007879;28;20462;-60
2021/11/15 07:22:31;;;;;;;18.10;13.82;;;7.70;99.90;;;;;;4995902;28;20712;-62
2021/11/15 07:25:00;;;;;;;16.60;11.50;;;7.70;99.90;;;;;;4993138;28;20222;-62
2021/11/15 07:27:28;;;;;;;16.33;12.57;;;7.60;99.90;;;;;;4994659;28;20481;-61
2021/11/15 07:29:57;;;;;;;13.55;11.30;;;7.60;99.90;;;;;;4994065;28;20229;-61
2021/11/15 07:32:25;;;;;;;18.37;12.47;;;7.70;99.90;;;;;;4997253;28;20574;-62
2021/11/15 07:34:53;;;;;;;24.23;12.43;;;7.70;99.90;;;;;;5007207;28;20469;-62
2021/11/15 07:37:22;;;;;;;17.92;13.13;;;7.80;99.90;;;;;;4994625;28;20230;-61
2021/11/15 07:39:51;;;;;;;18.40;12.52;;;7.70;99.90;;;;;;5006216;28;20217;-60
2021/11/15 07:42:21;;;;;;;17.77;12.90;;;7.70;99.90;;;;;;5008972;28;20211;-61
2021/11/15 07:44:49;;;;;;;17.50;13.43;;;7.70;99.90;;;;;;4993785;28;20227;-61
2021/11/15 07:47:18;;;;;;;17.77;13.80;;;7.70;99.90;;;;;;4996824;28;20720;-62
2021/11/15 07:49:47;;;;;;;32.53;18.97;;;7.70;99.90;;;;;;5011456;28;20225;-60
2021/11/15 07:52:17;;;;;;;30.40;18.17;;;7.70;99.90;;;;;;5013890;28;20919;-60
2021/11/15 07:54:46;;;;;;;21.65;16.35;;;7.70;99.90;;;;;;5013048;28;20231;-62
2021/11/15 07:57:17;;;;;;;18.17;13.90;;;7.80;99.90;;;;;;5009044;28;20226;-61
2021/11/15 07:59:45;;;;;;;21.73;15.38;;;7.80;99.90;;;;;;4993914;28;20472;-61
2021/11/15 08:02:15;;;;;;;21.17;16.30;;;7.80;99.90;;;;;;4994422;28;20675;-60
2021/11/15 08:04:46;;;;;;;21.10;14.23;;;7.90;99.90;;;;;;4991707;28;20879;-61
2021/11/15 08:07:14;;;;;;;20.40;14.47;;;7.90;99.90;;;;;;4994035;28;20441;-61
2021/11/15 08:09:43;;;;;;;22.20;14.37;;;8.00;99.90;;;;;;4993611;28;20959;-61
2021/11/15 08:12:12;;;;;;;24.03;14.70;;;8.00;99.90;;;;;;4994102;28;20450;-61
2021/11/15 08:14:43;;;;;;;23.30;14.63;;;8.00;99.90;;;;;;4993123;28;20473;-61
2021/11/15 08:17:13;;;;;;;26.03;15.03;;;8.00;99.90;;;;;;5001158;28;21030;-62
2021/11/15 08:19:42;;;;;;;21.90;15.53;;;8.00;99.90;;;;;;5005102;28;20884;-61
2021/11/15 08:22:11;;;;;;;25.67;16.90;;;7.90;99.90;;;;;;4999743;28;20439;-61
2021/11/15 08:25:24;;;;;;;25.45;15.27;;;7.80;99.90;;;;;;5012635;28;20468;-60
2021/11/15 08:27:52;;;;;;;23.80;15.27;;;7.80;99.90;;;;;;5004839;28;20297;-61
2021/11/15 08:30:22;;;;;;;28.33;14.63;;;7.80;99.90;;;;;;5011721;28;20881;-61
2021/11/15 08:32:51;;;;;;;25.05;14.40;;;7.80;99.90;;;;;;5012140;28;20193;-61
2021/11/15 08:35:21;;;;;;;22.83;14.37;;;7.90;99.90;;;;;;5012026;28;20596;-61
2021/11/15 08:38:21;;;;;;;22.60;14.60;;;7.90;99.90;;;;;;4995947;28;20457;-60
2021/11/15 08:40:50;;;;;;;21.10;14.10;;;7.90;99.90;;;;;;4993164;28;20472;-60
2021/11/15 08:43:20;;;;;;;27.37;15.07;;;7.90;99.90;;;;;;4993375;28;20445;-62
2021/11/15 08:45:50;;;;;;;20.27;14.60;;;7.80;99.90;;;;;;4992705;28;20476;-62
2021/11/15 08:48:20;;;;;;;33.20;19.10;;;7.80;99.90;;;;;;4999793;28;20358;-60
2021/11/15 08:50:48;;;;;;;19.17;15.40;;;7.80;99.90;;;;;;4998705;28;20218;-60
2021/11/15 08:53:17;;;;;;;23.25;15.20;;;7.90;99.90;;;;;;4993156;28;20266;-60
2021/11/15 08:55:45;;;;;;;21.40;13.67;;;7.90;99.90;;;;;;4991971;28;20712;-62
2021/11/15 08:58:13;;;;;;;23.13;14.97;;;8.00;99.90;;;;;;4993096;28;20456;-62
2021/11/15 09:00:45;;;;;;;19.07;14.37;;;8.00;99.90;;;;;;4992509;28;20549;-60
2021/11/15 09:03:16;;;;;;;21.17;14.47;;;8.00;99.90;;;;;;4993071;28;20519;-62
2021/11/15 09:05:46;;;;;;;26.00;14.73;;;8.00;99.90;;;;;;4991924;28;21066;-61
2021/11/15 09:08:14;;;;;;;22.20;15.43;;;8.00;99.90;;;;;;4992974;28;20840;-61
2021/11/15 09:10:42;;;;;;;21.48;16.50;;;7.90;99.90;;;;;;4991391;28;20511;-60
2021/11/15 09:13:11;;;;;;;27.17;15.20;;;7.90;99.90;;;;;;4992932;28;20209;-61
2021/11/15 09:15:39;;;;;;;21.20;15.25;;;7.90;99.90;;;;;;4991863;28;20469;-62
2021/11/15 09:18:08;;;;;;;22.97;15.17;;;7.90;99.90;;;;;;4993071;28;20566;-61
2021/11/15 09:20:37;;;;;;;21.87;13.73;;;7.90;99.90;;;;;;4992467;28;20504;-60
2021/11/15 09:23:06;;;;;;;23.20;15.73;;;7.90;99.90;;;;;;4993067;28;20435;-61
2021/11/15 09:25:35;;;;;;;23.70;15.90;;;8.00;99.90;;;;;;4991805;28;20996;-61
2021/11/15 09:28:04;;;;;;;24.13;16.27;;;8.10;99.90;;;;;;5017251;28;20836;-62
2021/11/15 09:30:32;;;;;;;22.90;14.10;;;8.10;99.90;;;;;;5011453;28;21040;-60
2021/11/15 09:33:03;;;;;;;22.73;16.13;;;8.20;99.90;;;;;;5012323;28;20460;-61
2021/11/15 09:35:32;;;;;;;22.20;14.70;;;8.20;99.90;;;;;;5007134;28;20477;-61
2021/11/15 09:38:03;;;;;;;31.23;16.23;;;8.20;99.90;;;;;;4992685;28;20481;-62
2021/11/15 09:40:32;;;;;;;24.30;13.87;;;8.20;99.90;;;;;;4996953;28;20550;-60
2021/11/15 09:43:00;;;;;;;27.03;16.10;;;8.10;99.90;;;;;;5009169;28;20499;-60
2021/11/15 09:45:29;;;;;;;23.83;16.00;;;8.10;99.90;;;;;;5011421;28;20469;-63
2021/11/15 09:47:58;;;;;;;21.97;15.13;;;8.20;99.90;;;;;;5011607;28;20421;-61
2021/11/15 09:50:27;;;;;;;24.07;15.30;;;8.20;99.90;;;;;;5012373;28;20566;-60
2021/11/15 09:52:55;;;;;;;23.60;15.43;;;8.20;99.90;;;;;;5007931;28;20441;-60
2021/11/15 09:55:25;;;;;;;23.70;17.75;;;8.20;99.90;;;;;;5010681;28;20467;-61
2021/11/15 09:57:53;;;;;;;21.93;15.33;;;8.10;99.90;;;;;;4995839;28;20247;-62
2021/11/15 10:00:23;;;;;;;24.47;15.53;;;8.20;99.90;;;;;;4991768;28;20523;-61
2021/11/15 10:02:53;;;;;;;19.47;15.10;;;8.30;99.90;;;;;;4992418;28;20429;-60
2021/11/15 10:05:26;;;;;;;21.60;14.57;;;8.30;99.90;;;;;;4991315;28;20507;-61
2021/11/15 10:07:57;;;;;;;18.33;15.30;;;8.30;99.90;;;;;;4995357;28;20476;-61
2021/11/15 10:10:41;;;;;;;22.37;16.20;;;8.30;99.90;;;;;;5010889;28;20890;-60
2021/11/15 10:13:19;;;;;;;24.58;17.60;;;8.30;99.90;;;;;;4993661;28;20445;-61
2021/11/15 10:15:51;;;;;;;25.80;16.42;;;8.10;99.90;;;;;;5006415;28;20221;-62
2021/11/15 10:18:35;;;;;;;26.60;17.50;;;8.00;99.90;;;;;;4991097;28;20204;-62
2021/11/15 10:21:06;;;;;;;22.03;16.17;;;8.10;99.90;;;;;;4990768;28;20481;-60
2021/11/15 10:23:42;;;;;;;19.35;15.15;;;8.10;99.90;;;;;;5007764;28;20521;-60
2021/11/15 10:26:17;;;;;;;22.10;14.48;;;8.00;99.90;;;;;;4991364;28;20256;-61
2021/11/15 10:28:46;;;;;;;21.20;15.53;;;8.00;99.90;;;;;;4992342;28;20197;-60
2021/11/15 10:31:44;;;;;;;21.73;16.15;;;8.00;99.90;;;;;;4991961;28;20879;-60
2021/11/15 10:34:15;;;;;;;25.70;15.20;;;8.00;99.90;;;;;;5005803;28;20205;-62
2021/11/15 10:37:06;;;;;;;29.33;16.63;;;7.90;99.90;;;;;;4991472;28;20234;-62
2021/11/15 10:39:40;;;;;;;20.20;14.15;;;8.00;99.90;;;;;;4991687;28;20283;-60
2021/11/15 10:42:14;;;;;;;22.27;15.27;;;8.10;99.90;;;;;;4992061;28;20288;-60
2021/11/15 10:44:46;;;;;;;20.53;15.87;;;8.10;99.90;;;;;;4996624;28;20475;-61
2021/11/15 10:47:15;;;;;;;21.23;14.60;;;8.10;99.90;;;;;;5011340;28;20498;-62
2021/11/15 10:49:46;;;;;;;21.60;14.30;;;8.30;99.90;;;;;;5006962;28;20478;-61
2021/11/15 10:52:16;;;;;;;21.50;14.73;;;8.30;99.90;;;;;;4991800;28;20426;-60
2021/11/15 10:54:55;;;;;;;21.27;15.10;;;8.30;99.90;;;;;;4989784;28;20488;-62
2021/11/15 10:57:40;;;;;;;22.20;14.90;;;8.40;99.90;;;;;;4991388;28;20465;-62
2021/11/15 11:00:23;;;;;;;20.30;14.13;;;8.40;99.90;;;;;;4994312;28;20465;-61
2021/11/15 11:02:54;;;;;;;21.93;14.73;;;8.40;99.90;;;;;;4995361;28;20800;-61
2021/11/15 11:05:24;;;;;;;23.27;16.77;;;8.50;99.90;;;;;;4994418;28;20499;-62
2021/11/15 11:08:06;;;;;;;24.17;15.53;;;8.30;99.90;;;;;;4995017;28;20422;-61
2021/11/15 11:10:42;;;;;;;25.97;16.97;;;8.30;99.90;;;;;;4994746;28;20515;-61
2021/11/15 11:13:14;;;;;;;25.10;14.23;;;8.20;99.90;;;;;;4994944;28;20452;-60
2021/11/15 11:15:46;;;;;;;24.00;16.60;;;8.10;99.90;;;;;;4992992;28;20481;-62
2021/11/15 11:18:18;;;;;;;25.00;15.50;;;8.20;99.90;;;;;;4994856;28;20414;-62
2021/11/15 11:26:42;;;;;;;28.33;16.00;;;8.30;99.90;;;;;;4993158;28;20476;-62
2021/11/15 11:29:15;;;;;;;24.40;16.33;;;8.40;99.90;;;;;;4994337;28;20449;-62
2021/11/15 11:31:46;;;;;;;25.00;16.80;;;8.30;99.90;;;;;;4977423;28;20509;-61
2021/11/15 11:34:16;;;;;;;27.50;19.27;;;8.30;99.90;;;;;;4995776;28;20451;-61
2021/11/15 11:36:45;;;;;;;28.40;17.53;;;8.20;99.90;;;;;;5014305;28;20508;-62
2021/11/15 11:39:14;;;;;;;29.20;18.57;;;8.20;99.90;;;;;;5013114;28;20866;-61
2021/11/15 11:41:47;;;;;;;29.83;19.97;;;8.10;99.90;;;;;;5005808;28;20458;-61
2021/11/15 11:44:16;;;;;;;30.17;19.13;;;8.10;99.90;;;;;;4978084;28;20430;-61
2021/11/15 11:46:45;;;;;;;23.87;17.37;;;8.00;99.90;;;;;;5013009;28;20498;-61
2021/11/15 11:49:18;;;;;;;29.92;18.20;;;8.10;99.90;;;;;;5013433;28;20440;-62
2021/11/15 11:51:50;;;;;;;34.87;19.10;;;8.00;99.90;;;;;;4998293;28;20245;-60
2021/11/15 11:54:21;;;;;;;30.27;18.53;;;8.10;99.90;;;;;;4992389;28;20437;-60
2021/11/15 11:57:05;;;;;;;30.83;17.97;;;8.10;99.90;;;;;;5009431;28;20465;-60
2021/11/15 11:59:37;;;;;;;26.93;17.17;;;8.20;99.90;;;;;;5007602;28;20468;-61
2021/11/15 12:02:08;;;;;;;26.93;17.87;;;8.20;99.90;;;;;;5014092;28;20843;-60
2021/11/15 12:04:48;;;;;;;29.50;17.73;;;8.20;99.90;;;;;;5011754;28;20463;-61
2021/11/15 12:07:29;;;;;;;29.87;18.00;;;8.30;99.90;;;;;;4995468;28;20473;-61
2021/11/15 12:09:58;;;;;;;26.53;17.73;;;8.30;99.90;;;;;;4993390;28;20559;-61
2021/11/15 12:12:27;;;;;;;30.83;18.70;;;8.10;99.90;;;;;;4993830;28;20450;-61
2021/11/15 12:14:57;;;;;;;26.77;18.20;;;8.10;99.90;;;;;;5008475;28;20541;-61
2021/11/15 12:17:25;;;;;;;25.80;16.93;;;8.00;99.90;;;;;;4993636;28;20477;-61
2021/11/15 12:20:15;;;;;;;29.13;18.23;;;8.10;99.90;;;;;;4993042;28;20461;-61
2021/11/15 12:22:46;;;;;;;26.10;16.90;;;8.10;99.90;;;;;;4994087;28;20413;-60
2021/11/15 12:25:16;;;;;;;31.73;20.13;;;8.10;99.90;;;;;;4992856;28;20965;-62
2021/11/15 12:27:47;;;;;;;24.70;16.47;;;8.10;99.90;;;;;;4993613;28;20191;-61
2021/11/15 12:30:20;;;;;;;34.75;18.38;;;8.10;99.90;;;;;;4993128;28;20457;-61
2021/11/15 12:33:03;;;;;;;24.50;15.77;;;8.10;99.90;;;;;;4992381;28;20199;-61
2021/11/15 12:35:50;;;;;;;26.73;17.33;;;8.20;99.90;;;;;;4992436;28;21003;-61
2021/11/15 12:38:44;;;;;;;27.30;17.00;;;8.10;99.90;;;;;;4993601;28;20428;-64
2021/11/15 12:41:37;;;;;;;27.25;17.73;;;8.10;99.90;;;;;;4993008;28;20619;-61
2021/11/15 12:44:26;;;;;;;27.13;17.00;;;8.20;99.90;;;;;;4990099;28;20614;-61
2021/11/15 12:46:59;;;;;;;26.43;16.50;;;8.20;99.90;;;;;;5012823;28;20435;-61
2021/11/15 12:49:35;;;;;;;23.50;16.40;;;8.10;99.90;;;;;;5011141;28;20465;-61
2021/11/15 12:52:24;;;;;;;32.20;17.63;;;8.10;99.90;;;;;;5012614;28;20464;-61
2021/11/15 12:54:57;;;;;;;28.97;19.13;;;8.10;99.90;;;;;;5011935;28;20768;-62
2021/11/15 12:57:32;;;;;;;27.60;17.30;;;8.00;99.90;;;;;;5000162;28;20540;-62
2021/11/15 13:00:03;;;;;;;37.05;21.27;;;7.90;99.90;;;;;;4992635;28;20465;-61
2021/11/15 13:02:33;;;;;;;30.23;17.90;;;7.80;99.90;;;;;;4993116;28;20183;-60